sensor_id;sensor_type;location;lat;lon;timestamp;temperature;humidity
44843;DHT22;31884;52.538;13.820;2023-06-22T00:01:18;17.70;99.90
44843;DHT22;31884;52.538;13.820;2023-06-22T00:03:43;17.70;99.90
44843;DHT22;31884;52.538;13.820;2023-06-22T00:06:09;17.70;99.90
44843;DHT22;31884;52.538;13.820;2023-06-22T00:08:34;17.60;99.90
44843;DHT22;31884;52.538;13.820;2023-06-22T00:11:00;17.60;99.90
44843;DHT22;31884;52.538;13.820;2023-06-22T00:13:25;17.60;99.90
44843;DHT22;31884;52.538;13.820;2023-06-22T00:15:50;17.50;99.90
44843;DHT22;31884;52.538;13.820;2023-06-22T00:18:16;17.50;99.90
44843;DHT22;31884;52.538;13.820;2023-06-22T00:20:42;17.50;99.90
44843;DHT22;31884;52.538;13.820;2023-06-22T00:23:07;17.50;99.90
44843;DHT22;31884;52.538;13.820;2023-06-22T00:25:34;17.50;99.90
44843;DHT22;31884;52.538;13.820;2023-06-22T00:28:00;17.40;99.90
44843;DHT22;31884;52.538;13.820;2023-06-22T00:30:25;17.40;99.90
44843;DHT22;31884;52.538;13.820;2023-06-22T00:32:51;17.40;99.90
44843;DHT22;31884;52.538;13.820;2023-06-22T00:35:16;17.40;99.90
44843;DHT22;31884;52.538;13.820;2023-06-22T00:37:42;17.40;99.90
44843;DHT22;31884;52.538;13.820;2023-06-22T00:40:08;17.30;99.90
44843;DHT22;31884;52.538;13.820;2023-06-22T00:42:36;17.30;99.90
44843;DHT22;31884;52.538;13.820;2023-06-22T00:45:02;17.30;99.90
44843;DHT22;31884;52.538;13.820;2023-06-22T00:47:27;17.30;99.90
44843;DHT22;31884;52.538;13.820;2023-06-22T00:49:53;17.30;99.90
44843;DHT22;31884;52.538;13.820;2023-06-22T00:52:20;17.30;99.90
44843;DHT22;31884;52.538;13.820;2023-06-22T00:54:51;17.20;99.90
44843;DHT22;31884;52.538;13.820;2023-06-22T00:57:17;17.20;99.90
44843;DHT22;31884;52.538;13.820;2023-06-22T00:59:44;17.20;99.90
44843;DHT22;31884;52.538;13.820;2023-06-22T01:02:10;17.20;99.90
44843;DHT22;31884;52.538;13.820;2023-06-22T01:04:37;17.20;99.90
44843;DHT22;31884;52.538;13.820;2023-06-22T01:07:14;17.10;99.90
44843;DHT22;31884;52.538;13.820;2023-06-22T01:10:18;17.10;99.90
44843;DHT22;31884;52.538;13.820;2023-06-22T01:12:53;17.10;99.90
44843;DHT22;31884;52.538;13.820;2023-06-22T01:15:21;17.10;99.90
44843;DHT22;31884;52.538;13.820;2023-06-22T01:17:49;17.10;99.90
44843;DHT22;31884;52.538;13.820;2023-06-22T01:20:15;17.00;99.90
44843;DHT22;31884;52.538;13.820;2023-06-22T01:25:21;17.00;99.90
44843;DHT22;31884;52.538;13.820;2023-06-22T01:27:58;17.00;99.90
44843;DHT22;31884;52.538;13.820;2023-06-22T01:30:30;16.90;99.90
44843;DHT22;31884;52.538;13.820;2023-06-22T01:32:56;16.90;99.90
44843;DHT22;31884;52.538;13.820;2023-06-22T01:35:22;16.90;99.90
44843;DHT22;31884;52.538;13.820;2023-06-22T01:37:49;16.90;99.90
44843;DHT22;31884;52.538;13.820;2023-06-22T01:40:15;16.90;99.90
44843;DHT22;31884;52.538;13.820;2023-06-22T01:42:41;16.90;99.90
44843;DHT22;31884;52.538;13.820;2023-06-22T01:45:10;16.80;99.90
44843;DHT22;31884;52.538;13.820;2023-06-22T01:47:36;16.80;99.90
44843;DHT22;31884;52.538;13.820;2023-06-22T01:50:02;16.80;99.90
44843;DHT22;31884;52.538;13.820;2023-06-22T01:52:28;16.80;99.90
44843;DHT22;31884;52.538;13.820;2023-06-22T01:54:53;16.70;99.90
44843;DHT22;31884;52.538;13.820;2023-06-22T01:57:19;16.80;99.90
44843;DHT22;31884;52.538;13.820;2023-06-22T01:59:57;16.70;99.90
44843;DHT22;31884;52.538;13.820;2023-06-22T02:02:24;16.70;99.90
44843;DHT22;31884;52.538;13.820;2023-06-22T02:05:01;16.70;99.90
44843;DHT22;31884;52.538;13.820;2023-06-22T02:07:31;16.70;99.90
44843;DHT22;31884;52.538;13.820;2023-06-22T02:09:59;16.60;99.90
44843;DHT22;31884;52.538;13.820;2023-06-22T02:12:26;16.60;99.90
44843;DHT22;31884;52.538;13.820;2023-06-22T02:14:53;16.60;99.90
44843;DHT22;31884;52.538;13.820;2023-06-22T02:17:19;16.60;99.90
44843;DHT22;31884;52.538;13.820;2023-06-22T02:19:45;16.60;99.90
44843;DHT22;31884;52.538;13.820;2023-06-22T02:22:10;16.60;99.90
44843;DHT22;31884;52.538;13.820;2023-06-22T02:24:37;16.60;99.90
44843;DHT22;31884;52.538;13.820;2023-06-22T02:27:03;16.60;99.90
44843;DHT22;31884;52.538;13.820;2023-06-22T02:29:29;16.60;99.90
44843;DHT22;31884;52.538;13.820;2023-06-22T02:31:55;16.60;99.90
44843;DHT22;31884;52.538;13.820;2023-06-22T02:34:21;16.60;99.90
44843;DHT22;31884;52.538;13.820;2023-06-22T02:36:48;16.60;99.90
44843;DHT22;31884;52.538;13.820;2023-06-22T02:39:21;16.60;99.90
44843;DHT22;31884;52.538;13.820;2023-06-22T02:41:49;16.50;99.90
44843;DHT22;31884;52.538;13.820;2023-06-22T02:44:15;16.50;99.90
44843;DHT22;31884;52.538;13.820;2023-06-22T02:46:40;16.50;99.90
44843;DHT22;31884;52.538;13.820;2023-06-22T02:49:06;16.50;99.90
44843;DHT22;31884;52.538;13.820;2023-06-22T02:51:33;16.50;99.90
44843;DHT22;31884;52.538;13.820;2023-06-22T02:53:59;16.60;99.90
44843;DHT22;31884;52.538;13.820;2023-06-22T02:56:25;16.60;99.90
44843;DHT22;31884;52.538;13.820;2023-06-22T02:58:51;16.60;99.90
44843;DHT22;31884;52.538;13.820;2023-06-22T03:01:17;16.60;99.90
44843;DHT22;31884;52.538;13.820;2023-06-22T03:03:49;16.70;99.90
44843;DHT22;31884;52.538;13.820;2023-06-22T03:06:15;16.80;99.90
44843;DHT22;31884;52.538;13.820;2023-06-22T03:08:40;16.80;99.90
44843;DHT22;31884;52.538;13.820;2023-06-22T03:11:07;16.90;99.90
44843;DHT22;31884;52.538;13.820;2023-06-22T03:13:33;17.00;99.90
44843;DHT22;31884;52.538;13.820;2023-06-22T03:15:58;17.10;99.90
44843;DHT22;31884;52.538;13.820;2023-06-22T03:18:24;17.30;99.90
44843;DHT22;31884;52.538;13.820;2023-06-22T03:20:49;17.30;99.90
44843;DHT22;31884;52.538;13.820;2023-06-22T03:23:15;17.50;99.90
44843;DHT22;31884;52.538;13.820;2023-06-22T03:25:41;17.50;99.90
44843;DHT22;31884;52.538;13.820;2023-06-22T03:28:06;17.70;99.90
44843;DHT22;31884;52.538;13.820;2023-06-22T03:30:32;17.70;99.90
44843;DHT22;31884;52.538;13.820;2023-06-22T03:32:57;17.80;99.90
44843;DHT22;31884;52.538;13.820;2023-06-22T03:35:23;17.90;99.90
44843;DHT22;31884;52.538;13.820;2023-06-22T03:37:48;18.00;99.90
44843;DHT22;31884;52.538;13.820;2023-06-22T03:40:14;18.20;99.90
44843;DHT22;31884;52.538;13.820;2023-06-22T03:42:39;18.30;99.90
44843;DHT22;31884;52.538;13.820;2023-06-22T03:45:05;18.40;99.90
44843;DHT22;31884;52.538;13.820;2023-06-22T03:47:32;18.40;99.90
44843;DHT22;31884;52.538;13.820;2023-06-22T03:49:58;18.50;99.90
44843;DHT22;31884;52.538;13.820;2023-06-22T03:52:24;18.50;99.90
44843;DHT22;31884;52.538;13.820;2023-06-22T03:54:50;18.70;99.90
44843;DHT22;31884;52.538;13.820;2023-06-22T03:57:16;18.80;99.90
44843;DHT22;31884;52.538;13.820;2023-06-22T03:59:41;19.20;99.90
44843;DHT22;31884;52.538;13.820;2023-06-22T04:02:07;19.70;99.90
44843;DHT22;31884;52.538;13.820;2023-06-22T04:04:32;20.20;99.90
44843;DHT22;31884;52.538;13.820;2023-06-22T04:06:59;20.70;99.90
44843;DHT22;31884;52.538;13.820;2023-06-22T04:09:24;21.10;99.90
44843;DHT22;31884;52.538;13.820;2023-06-22T04:11:50;21.50;96.70
44843;DHT22;31884;52.538;13.820;2023-06-22T04:14:15;21.90;99.70
44843;DHT22;31884;52.538;13.820;2023-06-22T04:16:41;22.40;98.40
44843;DHT22;31884;52.538;13.820;2023-06-22T04:19:06;22.80;95.20
44843;DHT22;31884;52.538;13.820;2023-06-22T04:21:32;23.10;93.60
44843;DHT22;31884;52.538;13.820;2023-06-22T04:23:57;23.30;83.90
44843;DHT22;31884;52.538;13.820;2023-06-22T04:26:23;23.60;87.90
44843;DHT22;31884;52.538;13.820;2023-06-22T04:28:48;24.00;89.50
44843;DHT22;31884;52.538;13.820;2023-06-22T04:31:21;24.50;89.00
44843;DHT22;31884;52.538;13.820;2023-06-22T04:33:46;25.00;86.90
44843;DHT22;31884;52.538;13.820;2023-06-22T04:36:12;25.50;83.50
44843;DHT22;31884;52.538;13.820;2023-06-22T04:38:39;25.80;78.30
44843;DHT22;31884;52.538;13.820;2023-06-22T04:41:04;25.80;76.60
44843;DHT22;31884;52.538;13.820;2023-06-22T04:43:30;26.10;75.80
44843;DHT22;31884;52.538;13.820;2023-06-22T04:45:56;26.50;70.40
44843;DHT22;31884;52.538;13.820;2023-06-22T04:48:28;26.60;70.50
44843;DHT22;31884;52.538;13.820;2023-06-22T04:50:58;27.10;70.10
44843;DHT22;31884;52.538;13.820;2023-06-22T04:53:28;27.50;67.00
44843;DHT22;31884;52.538;13.820;2023-06-22T04:55:55;27.80;56.50
44843;DHT22;31884;52.538;13.820;2023-06-22T04:58:20;27.70;62.00
44843;DHT22;31884;52.538;13.820;2023-06-22T05:00:46;28.30;62.00
44843;DHT22;31884;52.538;13.820;2023-06-22T05:03:12;28.30;58.90
44843;DHT22;31884;52.538;13.820;2023-06-22T05:05:37;28.70;54.00
44843;DHT22;31884;52.538;13.820;2023-06-22T05:08:03;28.90;56.10
44843;DHT22;31884;52.538;13.820;2023-06-22T05:10:32;29.20;55.30
44843;DHT22;31884;52.538;13.820;2023-06-22T05:12:58;29.60;50.70
44843;DHT22;31884;52.538;13.820;2023-06-22T05:15:24;29.90;52.00
44843;DHT22;31884;52.538;13.820;2023-06-22T05:17:53;30.30;50.70
44843;DHT22;31884;52.538;13.820;2023-06-22T05:20:18;30.70;49.00
44843;DHT22;31884;52.538;13.820;2023-06-22T05:22:44;30.80;43.00
44843;DHT22;31884;52.538;13.820;2023-06-22T05:25:10;31.10;45.50
44843;DHT22;31884;52.538;13.820;2023-06-22T05:27:37;31.40;42.00
44843;DHT22;31884;52.538;13.820;2023-06-22T05:30:09;31.00;38.30
44843;DHT22;31884;52.538;13.820;2023-06-22T05:32:35;31.30;36.90
44843;DHT22;31884;52.538;13.820;2023-06-22T05:35:02;31.20;35.30
44843;DHT22;31884;52.538;13.820;2023-06-22T05:37:28;31.50;31.50
44843;DHT22;31884;52.538;13.820;2023-06-22T05:39:54;31.90;33.50
44843;DHT22;31884;52.538;13.820;2023-06-22T05:42:21;32.30;32.20
44843;DHT22;31884;52.538;13.820;2023-06-22T05:44:46;33.00;32.00
44843;DHT22;31884;52.538;13.820;2023-06-22T05:47:12;33.10;24.00
44843;DHT22;31884;52.538;13.820;2023-06-22T05:49:38;33.10;27.60
44843;DHT22;31884;52.538;13.820;2023-06-22T05:52:03;33.20;27.20
44843;DHT22;31884;52.538;13.820;2023-06-22T05:54:29;33.70;26.40
44843;DHT22;31884;52.538;13.820;2023-06-22T05:56:55;34.10;23.90
44843;DHT22;31884;52.538;13.820;2023-06-22T05:59:20;33.80;22.40
44843;DHT22;31884;52.538;13.820;2023-06-22T06:01:46;33.80;19.40
44843;DHT22;31884;52.538;13.820;2023-06-22T06:04:16;33.70;19.90
44843;DHT22;31884;52.538;13.820;2023-06-22T06:06:41;33.40;17.40
44843;DHT22;31884;52.538;13.820;2023-06-22T06:09:07;33.00;18.30
44843;DHT22;31884;52.538;13.820;2023-06-22T06:11:33;31.40;19.10
44843;DHT22;31884;52.538;13.820;2023-06-22T06:13:58;30.30;19.60
44843;DHT22;31884;52.538;13.820;2023-06-22T06:16:24;29.90;20.20
44843;DHT22;31884;52.538;13.820;2023-06-22T06:18:49;30.00;19.90
44843;DHT22;31884;52.538;13.820;2023-06-22T06:21:16;30.00;20.20
44843;DHT22;31884;52.538;13.820;2023-06-22T06:23:41;29.90;20.00
44843;DHT22;31884;52.538;13.820;2023-06-22T06:26:07;30.30;20.70
44843;DHT22;31884;52.538;13.820;2023-06-22T06:28:34;31.30;19.90
44843;DHT22;31884;52.538;13.820;2023-06-22T06:30:59;32.40;18.80
44843;DHT22;31884;52.538;13.820;2023-06-22T06:33:25;33.20;18.10
44843;DHT22;31884;52.538;13.820;2023-06-22T06:35:50;34.20;17.10
44843;DHT22;31884;52.538;13.820;2023-06-22T06:38:16;34.90;16.40
44843;DHT22;31884;52.538;13.820;2023-06-22T06:40:41;36.00;15.10
44843;DHT22;31884;52.538;13.820;2023-06-22T06:43:07;36.90;12.70
44843;DHT22;31884;52.538;13.820;2023-06-22T06:45:32;36.40;10.90
44843;DHT22;31884;52.538;13.820;2023-06-22T06:48:00;36.60;12.00
44843;DHT22;31884;52.538;13.820;2023-06-22T06:50:25;35.70;12.30
44843;DHT22;31884;52.538;13.820;2023-06-22T06:52:51;36.20;12.30
44843;DHT22;31884;52.538;13.820;2023-06-22T06:55:17;35.10;11.80
44843;DHT22;31884;52.538;13.820;2023-06-22T06:57:43;35.30;12.70
44843;DHT22;31884;52.538;13.820;2023-06-22T07:00:12;35.80;12.20
44843;DHT22;31884;52.538;13.820;2023-06-22T07:02:40;34.60;12.10
44843;DHT22;31884;52.538;13.820;2023-06-22T07:05:07;34.20;11.50
44843;DHT22;31884;52.538;13.820;2023-06-22T07:07:33;34.20;12.70
44843;DHT22;31884;52.538;13.820;2023-06-22T07:09:59;35.10;12.20
44843;DHT22;31884;52.538;13.820;2023-06-22T07:12:24;36.20;10.70
44843;DHT22;31884;52.538;13.820;2023-06-22T07:14:51;36.00;10.20
44843;DHT22;31884;52.538;13.820;2023-06-22T07:17:16;36.80;9.70
44843;DHT22;31884;52.538;13.820;2023-06-22T07:19:42;37.40;9.60
44843;DHT22;31884;52.538;13.820;2023-06-22T07:22:07;37.40;8.30
44843;DHT22;31884;52.538;13.820;2023-06-22T07:24:33;37.30;7.70
44843;DHT22;31884;52.538;13.820;2023-06-22T07:26:58;37.50;7.30
44843;DHT22;31884;52.538;13.820;2023-06-22T07:29:24;37.10;8.30
44843;DHT22;31884;52.538;13.820;2023-06-22T07:31:50;37.20;8.20
44843;DHT22;31884;52.538;13.820;2023-06-22T07:34:21;36.60;7.90
44843;DHT22;31884;52.538;13.820;2023-06-22T07:36:47;35.60;8.80
44843;DHT22;31884;52.538;13.820;2023-06-22T07:39:13;35.70;9.20
44843;DHT22;31884;52.538;13.820;2023-06-22T07:41:39;37.00;8.50
44843;DHT22;31884;52.538;13.820;2023-06-22T07:44:05;37.40;7.20
44843;DHT22;31884;52.538;13.820;2023-06-22T07:46:31;36.60;7.70
44843;DHT22;31884;52.538;13.820;2023-06-22T07:48:57;37.50;7.00
44843;DHT22;31884;52.538;13.820;2023-06-22T07:51:23;37.70;6.10
44843;DHT22;31884;52.538;13.820;2023-06-22T07:53:49;37.40;5.50
44843;DHT22;31884;52.538;13.820;2023-06-22T07:56:14;37.10;4.40
44843;DHT22;31884;52.538;13.820;2023-06-22T07:58:44;37.50;5.40
44843;DHT22;31884;52.538;13.820;2023-06-22T08:01:10;38.40;4.20
44843;DHT22;31884;52.538;13.820;2023-06-22T08:03:36;39.00;2.90
44843;DHT22;31884;52.538;13.820;2023-06-22T08:06:03;39.30;2.70
44843;DHT22;31884;52.538;13.820;2023-06-22T08:08:28;37.70;1.90
44843;DHT22;31884;52.538;13.820;2023-06-22T08:10:54;37.30;1.60
44843;DHT22;31884;52.538;13.820;2023-06-22T08:13:19;35.90;3.50
44843;DHT22;31884;52.538;13.820;2023-06-22T08:15:45;34.80;4.30
44843;DHT22;31884;52.538;13.820;2023-06-22T08:18:10;34.50;5.20
44843;DHT22;31884;52.538;13.820;2023-06-22T08:20:36;34.10;5.80
44843;DHT22;31884;52.538;13.820;2023-06-22T08:23:01;33.50;6.20
44843;DHT22;31884;52.538;13.820;2023-06-22T08:25:32;33.50;6.20
44843;DHT22;31884;52.538;13.820;2023-06-22T08:27:58;33.80;6.30
44843;DHT22;31884;52.538;13.820;2023-06-22T08:30:23;33.10;6.40
44843;DHT22;31884;52.538;13.820;2023-06-22T08:32:49;32.30;7.10
44843;DHT22;31884;52.538;13.820;2023-06-22T08:35:14;32.10;6.70
44843;DHT22;31884;52.538;13.820;2023-06-22T08:37:40;31.50;7.60
44843;DHT22;31884;52.538;13.820;2023-06-22T08:40:08;31.60;7.80
44843;DHT22;31884;52.538;13.820;2023-06-22T08:42:35;31.80;7.60
44843;DHT22;31884;52.538;13.820;2023-06-22T08:45:01;31.70;7.90
44843;DHT22;31884;52.538;13.820;2023-06-22T08:47:29;31.70;7.90
44843;DHT22;31884;52.538;13.820;2023-06-22T08:49:55;31.20;7.90
44843;DHT22;31884;52.538;13.820;2023-06-22T08:52:20;30.10;9.90
44843;DHT22;31884;52.538;13.820;2023-06-22T08:54:47;29.90;9.90
44843;DHT22;31884;52.538;13.820;2023-06-22T08:57:12;29.50;11.10
44843;DHT22;31884;52.538;13.820;2023-06-22T08:59:38;29.10;11.50
44843;DHT22;31884;52.538;13.820;2023-06-22T09:02:03;29.00;11.30
44843;DHT22;31884;52.538;13.820;2023-06-22T09:04:29;29.20;11.00
44843;DHT22;31884;52.538;13.820;2023-06-22T09:06:54;29.50;10.80
44843;DHT22;31884;52.538;13.820;2023-06-22T09:09:21;29.60;9.80
44843;DHT22;31884;52.538;13.820;2023-06-22T09:11:47;29.40;10.70
44843;DHT22;31884;52.538;13.820;2023-06-22T09:14:12;29.60;10.60
44843;DHT22;31884;52.538;13.820;2023-06-22T09:16:38;29.90;10.40
44843;DHT22;31884;52.538;13.820;2023-06-22T09:19:03;30.30;10.10
44843;DHT22;31884;52.538;13.820;2023-06-22T09:21:29;30.30;10.10
44843;DHT22;31884;52.538;13.820;2023-06-22T09:23:54;30.10;10.70
44843;DHT22;31884;52.538;13.820;2023-06-22T09:26:20;30.30;10.70
44843;DHT22;31884;52.538;13.820;2023-06-22T09:28:46;30.20;11.00
44843;DHT22;31884;52.538;13.820;2023-06-22T09:31:12;30.10;10.40
44843;DHT22;31884;52.538;13.820;2023-06-22T09:33:37;30.20;10.50
44843;DHT22;31884;52.538;13.820;2023-06-22T09:36:07;30.30;10.40
44843;DHT22;31884;52.538;13.820;2023-06-22T09:38:36;30.00;10.70
44843;DHT22;31884;52.538;13.820;2023-06-22T09:41:02;30.00;11.20
44843;DHT22;31884;52.538;13.820;2023-06-22T09:43:28;30.30;10.60
44843;DHT22;31884;52.538;13.820;2023-06-22T09:45:53;30.60;10.20
44843;DHT22;31884;52.538;13.820;2023-06-22T09:48:19;30.50;9.80
44843;DHT22;31884;52.538;13.820;2023-06-22T09:50:45;30.40;9.80
44843;DHT22;31884;52.538;13.820;2023-06-22T09:53:10;30.70;9.90
44843;DHT22;31884;52.538;13.820;2023-06-22T09:55:36;30.80;9.40
44843;DHT22;31884;52.538;13.820;2023-06-22T09:58:01;30.80;9.30
44843;DHT22;31884;52.538;13.820;2023-06-22T10:00:27;31.00;9.30
44843;DHT22;31884;52.538;13.820;2023-06-22T10:02:52;31.10;9.10
44843;DHT22;31884;52.538;13.820;2023-06-22T10:05:18;31.00;9.30
44843;DHT22;31884;52.538;13.820;2023-06-22T10:07:43;31.30;9.50
44843;DHT22;31884;52.538;13.820;2023-06-22T10:10:10;31.70;9.00
44843;DHT22;31884;52.538;13.820;2023-06-22T10:12:36;31.90;8.80
44843;DHT22;31884;52.538;13.820;2023-06-22T10:15:02;31.80;8.50
44843;DHT22;31884;52.538;13.820;2023-06-22T10:17:28;31.40;8.90
44843;DHT22;31884;52.538;13.820;2023-06-22T10:19:53;31.10;9.00
44843;DHT22;31884;52.538;13.820;2023-06-22T10:22:19;31.30;9.20
44843;DHT22;31884;52.538;13.820;2023-06-22T10:24:44;31.40;8.90
44843;DHT22;31884;52.538;13.820;2023-06-22T10:27:11;31.30;8.90
44843;DHT22;31884;52.538;13.820;2023-06-22T10:29:37;31.60;8.70
44843;DHT22;31884;52.538;13.820;2023-06-22T10:32:03;31.60;8.40
44843;DHT22;31884;52.538;13.820;2023-06-22T10:34:28;31.40;8.50
44843;DHT22;31884;52.538;13.820;2023-06-22T10:36:54;31.30;8.60
44843;DHT22;31884;52.538;13.820;2023-06-22T10:39:19;31.50;8.70
44843;DHT22;31884;52.538;13.820;2023-06-22T10:41:45;31.50;8.40
44843;DHT22;31884;52.538;13.820;2023-06-22T10:44:10;31.50;8.60
44843;DHT22;31884;52.538;13.820;2023-06-22T10:46:37;31.00;8.90
44843;DHT22;31884;52.538;13.820;2023-06-22T10:49:03;30.40;9.70
44843;DHT22;31884;52.538;13.820;2023-06-22T10:51:28;30.50;9.70
44843;DHT22;31884;52.538;13.820;2023-06-22T10:53:54;30.50;9.60
44843;DHT22;31884;52.538;13.820;2023-06-22T10:56:19;30.30;9.60
44843;DHT22;31884;52.538;13.820;2023-06-22T10:58:45;30.40;9.80
44843;DHT22;31884;52.538;13.820;2023-06-22T11:01:11;30.40;9.80
44843;DHT22;31884;52.538;13.820;2023-06-22T11:03:36;30.10;10.00
44843;DHT22;31884;52.538;13.820;2023-06-22T11:06:02;30.00;10.30
44843;DHT22;31884;52.538;13.820;2023-06-22T11:08:27;30.20;10.10
44843;DHT22;31884;52.538;13.820;2023-06-22T11:10:53;30.10;10.00
44843;DHT22;31884;52.538;13.820;2023-06-22T11:13:18;30.30;10.10
44843;DHT22;31884;52.538;13.820;2023-06-22T11:15:44;30.00;10.50
44843;DHT22;31884;52.538;13.820;2023-06-22T11:18:09;29.70;11.00
44843;DHT22;31884;52.538;13.820;2023-06-22T11:20:34;29.50;11.90
44843;DHT22;31884;52.538;13.820;2023-06-22T11:23:06;29.40;12.20
44843;DHT22;31884;52.538;13.820;2023-06-22T11:25:32;29.00;11.50
44843;DHT22;31884;52.538;13.820;2023-06-22T11:28:03;28.80;11.30
44843;DHT22;31884;52.538;13.820;2023-06-22T11:30:28;28.80;11.40
44843;DHT22;31884;52.538;13.820;2023-06-22T11:32:54;28.80;12.00
44843;DHT22;31884;52.538;13.820;2023-06-22T11:35:19;29.00;11.80
44843;DHT22;31884;52.538;13.820;2023-06-22T11:37:45;29.00;11.50
44843;DHT22;31884;52.538;13.820;2023-06-22T11:40:11;29.20;11.30
44843;DHT22;31884;52.538;13.820;2023-06-22T11:42:36;29.20;11.80
44843;DHT22;31884;52.538;13.820;2023-06-22T11:45:04;28.80;11.80
44843;DHT22;31884;52.538;13.820;2023-06-22T11:47:30;28.40;12.30
44843;DHT22;31884;52.538;13.820;2023-06-22T11:49:55;28.30;13.00
44843;DHT22;31884;52.538;13.820;2023-06-22T11:52:21;28.20;12.70
44843;DHT22;31884;52.538;13.820;2023-06-22T11:54:46;28.20;12.90
44843;DHT22;31884;52.538;13.820;2023-06-22T11:57:12;28.10;12.50
44843;DHT22;31884;52.538;13.820;2023-06-22T11:59:38;28.20;13.00
44843;DHT22;31884;52.538;13.820;2023-06-22T12:02:03;28.20;12.90
44843;DHT22;31884;52.538;13.820;2023-06-22T12:04:30;28.20;12.90
44843;DHT22;31884;52.538;13.820;2023-06-22T12:06:56;28.40;13.00
44843;DHT22;31884;52.538;13.820;2023-06-22T12:09:21;28.40;14.10
44843;DHT22;31884;52.538;13.820;2023-06-22T12:11:47;28.30;13.40
44843;DHT22;31884;52.538;13.820;2023-06-22T12:14:12;28.40;13.10
44843;DHT22;31884;52.538;13.820;2023-06-22T12:16:38;28.20;13.90
44843;DHT22;31884;52.538;13.820;2023-06-22T12:19:03;28.30;14.30
44843;DHT22;31884;52.538;13.820;2023-06-22T12:21:29;28.40;13.90
44843;DHT22;31884;52.538;13.820;2023-06-22T12:23:54;28.50;14.10
44843;DHT22;31884;52.538;13.820;2023-06-22T12:26:20;28.50;13.50
44843;DHT22;31884;52.538;13.820;2023-06-22T12:28:47;28.60;13.30
44843;DHT22;31884;52.538;13.820;2023-06-22T12:31:13;28.70;13.10
44843;DHT22;31884;52.538;13.820;2023-06-22T12:33:39;28.60;13.00
44843;DHT22;31884;52.538;13.820;2023-06-22T12:36:05;28.50;13.40
44843;DHT22;31884;52.538;13.820;2023-06-22T12:38:30;28.50;13.60
44843;DHT22;31884;52.538;13.820;2023-06-22T12:40:56;28.60;13.70
44843;DHT22;31884;52.538;13.820;2023-06-22T12:43:21;28.80;13.40
44843;DHT22;31884;52.538;13.820;2023-06-22T12:45:46;29.00;13.10
44843;DHT22;31884;52.538;13.820;2023-06-22T12:48:12;29.10;12.60
44843;DHT22;31884;52.538;13.820;2023-06-22T12:50:38;29.00;12.90
44843;DHT22;31884;52.538;13.820;2023-06-22T12:53:03;29.10;13.00
44843;DHT22;31884;52.538;13.820;2023-06-22T12:55:31;29.10;13.40
44843;DHT22;31884;52.538;13.820;2023-06-22T12:57:56;28.90;13.20
44843;DHT22;31884;52.538;13.820;2023-06-22T13:00:22;28.90;13.20
44843;DHT22;31884;52.538;13.820;2023-06-22T13:02:47;28.90;13.50
44843;DHT22;31884;52.538;13.820;2023-06-22T13:05:13;28.80;13.80
44843;DHT22;31884;52.538;13.820;2023-06-22T13:07:38;28.70;13.60
44843;DHT22;31884;52.538;13.820;2023-06-22T13:10:04;28.60;14.20
44843;DHT22;31884;52.538;13.820;2023-06-22T13:12:30;28.50;14.60
44843;DHT22;31884;52.538;13.820;2023-06-22T13:14:55;28.30;14.60
44843;DHT22;31884;52.538;13.820;2023-06-22T13:17:21;28.30;14.60
44843;DHT22;31884;52.538;13.820;2023-06-22T13:19:46;28.20;14.70
44843;DHT22;31884;52.538;13.820;2023-06-22T13:22:31;28.20;14.50
44843;DHT22;31884;52.538;13.820;2023-06-22T13:24:57;28.10;15.60
44843;DHT22;31884;52.538;13.820;2023-06-22T13:27:23;28.00;15.70
44843;DHT22;31884;52.538;13.820;2023-06-22T13:29:48;28.00;15.50
44843;DHT22;31884;52.538;13.820;2023-06-22T13:32:14;27.90;15.20
44843;DHT22;31884;52.538;13.820;2023-06-22T13:34:39;27.90;15.40
44843;DHT22;31884;52.538;13.820;2023-06-22T13:37:05;28.00;15.50
44843;DHT22;31884;52.538;13.820;2023-06-22T13:39:31;28.10;15.10
44843;DHT22;31884;52.538;13.820;2023-06-22T13:41:57;28.10;14.90
44843;DHT22;31884;52.538;13.820;2023-06-22T13:44:23;28.20;15.30
44843;DHT22;31884;52.538;13.820;2023-06-22T13:46:48;28.30;16.10
44843;DHT22;31884;52.538;13.820;2023-06-22T13:49:14;28.40;15.60
44843;DHT22;31884;52.538;13.820;2023-06-22T13:51:39;28.40;15.30
44843;DHT22;31884;52.538;13.820;2023-06-22T13:54:04;28.50;15.40
44843;DHT22;31884;52.538;13.820;2023-06-22T13:56:30;28.50;15.30
44843;DHT22;31884;52.538;13.820;2023-06-22T13:58:55;28.50;15.60
44843;DHT22;31884;52.538;13.820;2023-06-22T14:01:21;28.50;15.00
44843;DHT22;31884;52.538;13.820;2023-06-22T14:03:48;28.30;15.30
44843;DHT22;31884;52.538;13.820;2023-06-22T14:06:13;28.20;15.70
44843;DHT22;31884;52.538;13.820;2023-06-22T14:08:39;28.20;15.60
44843;DHT22;31884;52.538;13.820;2023-06-22T14:11:04;28.20;15.70
44843;DHT22;31884;52.538;13.820;2023-06-22T14:13:30;28.20;15.40
44843;DHT22;31884;52.538;13.820;2023-06-22T14:15:55;28.20;16.60
44843;DHT22;31884;52.538;13.820;2023-06-22T14:18:21;28.10;17.20
44843;DHT22;31884;52.538;13.820;2023-06-22T14:20:48;28.10;16.60
44843;DHT22;31884;52.538;13.820;2023-06-22T14:23:13;28.00;16.70
44843;DHT22;31884;52.538;13.820;2023-06-22T14:25:39;28.10;16.80
44843;DHT22;31884;52.538;13.820;2023-06-22T14:28:05;28.10;17.60
44843;DHT22;31884;52.538;13.820;2023-06-22T14:30:30;28.10;17.40
44843;DHT22;31884;52.538;13.820;2023-06-22T14:32:56;28.10;17.20
44843;DHT22;31884;52.538;13.820;2023-06-22T14:35:21;28.10;17.00
44843;DHT22;31884;52.538;13.820;2023-06-22T14:37:46;28.10;17.40
44843;DHT22;31884;52.538;13.820;2023-06-22T14:40:12;28.10;17.20
44843;DHT22;31884;52.538;13.820;2023-06-22T14:42:38;27.90;18.00
44843;DHT22;31884;52.538;13.820;2023-06-22T14:45:03;27.90;17.80
44843;DHT22;31884;52.538;13.820;2023-06-22T14:47:29;27.80;17.90
44843;DHT22;31884;52.538;13.820;2023-06-22T14:49:55;27.90;18.20
44843;DHT22;31884;52.538;13.820;2023-06-22T14:52:20;27.90;18.20
44843;DHT22;31884;52.538;13.820;2023-06-22T14:54:46;27.80;18.80
44843;DHT22;31884;52.538;13.820;2023-06-22T14:57:11;27.90;19.30
44843;DHT22;31884;52.538;13.820;2023-06-22T14:59:37;27.90;19.20
44843;DHT22;31884;52.538;13.820;2023-06-22T15:02:02;27.90;18.40
44843;DHT22;31884;52.538;13.820;2023-06-22T15:04:27;27.90;18.40
44843;DHT22;31884;52.538;13.820;2023-06-22T15:06:57;27.90;18.10
44843;DHT22;31884;52.538;13.820;2023-06-22T15:09:22;27.90;18.30
44843;DHT22;31884;52.538;13.820;2023-06-22T15:11:48;27.90;18.80
44843;DHT22;31884;52.538;13.820;2023-06-22T15:14:13;27.90;18.20
44843;DHT22;31884;52.538;13.820;2023-06-22T15:16:39;27.90;18.40